sensor_id;sensor_type;location;lat;lon;timestamp;pressure;altitude;pressure_sealevel;temperature;humidity
22550;BME280;11441;57.164;-2.120;2022-07-29T00:01:39;101382.78;;;15.69;100.00
22550;BME280;11441;57.164;-2.120;2022-07-29T00:04:06;101388.91;;;15.78;100.00
22550;BME280;11441;57.164;-2.120;2022-07-29T00:06:33;101387.28;;;15.77;100.00
22550;BME280;11441;57.164;-2.120;2022-07-29T00:09:00;101377.63;;;15.71;100.00
22550;BME280;11441;57.164;-2.120;2022-07-29T00:11:27;101378.59;;;15.78;100.00
22550;BME280;11441;57.164;-2.120;2022-07-29T00:13:54;101379.84;;;15.84;100.00
22550;BME280;11441;57.164;-2.120;2022-07-29T00:16:21;101377.44;;;15.83;100.00
22550;BME280;11441;57.164;-2.120;2022-07-29T00:18:48;101371.47;;;15.81;100.00
22550;BME280;11441;57.164;-2.120;2022-07-29T00:21:15;101384.88;;;15.75;100.00
22550;BME280;11441;57.164;-2.120;2022-07-29T00:23:42;101386.34;;;15.69;100.00
22550;BME280;11441;57.164;-2.120;2022-07-29T00:26:09;101384.16;;;15.78;100.00
22550;BME280;11441;57.164;-2.120;2022-07-29T00:28:36;101386.13;;;15.78;100.00
22550;BME280;11441;57.164;-2.120;2022-07-29T00:31:03;101372.84;;;15.68;100.00
22550;BME280;11441;57.164;-2.120;2022-07-29T00:36:56;101372.09;;;15.71;100.00
22550;BME280;11441;57.164;-2.120;2022-07-29T00:39:23;101377.22;;;15.69;100.00
22550;BME280;11441;57.164;-2.120;2022-07-29T00:42:11;101373.03;;;15.78;100.00
22550;BME280;11441;57.164;-2.120;2022-07-29T00:44:39;101371.81;;;15.76;100.00
22550;BME280;11441;57.164;-2.120;2022-07-29T00:47:25;101380.13;;;15.76;100.00
22550;BME280;11441;57.164;-2.120;2022-07-29T00:49:52;101369.75;;;15.73;100.00
22550;BME280;11441;57.164;-2.120;2022-07-29T00:52:39;101375.03;;;15.78;100.00
22550;BME280;11441;57.164;-2.120;2022-07-29T00:55:10;101378.53;;;15.75;100.00
22550;BME280;11441;57.164;-2.120;2022-07-29T00:57:38;101390.50;;;15.79;100.00
22550;BME280;11441;57.164;-2.120;2022-07-29T01:00:08;101373.41;;;15.77;100.00
22550;BME280;11441;57.164;-2.120;2022-07-29T01:02:35;101373.41;;;15.77;100.00
22550;BME280;11441;57.164;-2.120;2022-07-29T01:05:04;101372.91;;;15.71;100.00
22550;BME280;11441;57.164;-2.120;2022-07-29T01:10:38;101368.16;;;15.72;100.00
22550;BME280;11441;57.164;-2.120;2022-07-29T01:13:06;101371.28;;;15.70;100.00
22550;BME280;11441;57.164;-2.120;2022-07-29T01:15:45;101368.41;;;15.63;100.00
22550;BME280;11441;57.164;-2.120;2022-07-29T01:18:24;101368.53;;;15.70;100.00
22550;BME280;11441;57.164;-2.120;2022-07-29T01:24:14;101368.03;;;15.64;100.00
22550;BME280;11441;57.164;-2.120;2022-07-29T01:29:32;101372.56;;;15.50;100.00
22550;BME280;11441;57.164;-2.120;2022-07-29T01:32:26;101372.56;;;15.50;100.00
22550;BME280;11441;57.164;-2.120;2022-07-29T01:35:13;101384.19;;;15.55;100.00
22550;BME280;11441;57.164;-2.120;2022-07-29T01:38:01;101373.50;;;15.57;100.00
22550;BME280;11441;57.164;-2.120;2022-07-29T01:40:42;101380.94;;;15.53;100.00
22550;BME280;11441;57.164;-2.120;2022-07-29T01:43:13;101377.75;;;15.51;100.00
22550;BME280;11441;57.164;-2.120;2022-07-29T01:49:31;101367.88;;;15.54;100.00
22550;BME280;11441;57.164;-2.120;2022-07-29T01:52:05;101375.06;;;15.58;100.00
22550;BME280;11441;57.164;-2.120;2022-07-29T01:54:39;101380.94;;;15.53;100.00
22550;BME280;11441;57.164;-2.120;2022-07-29T01:57:14;101370.34;;;15.59;100.00
22550;BME280;11441;57.164;-2.120;2022-07-29T01:59:45;101370.72;;;15.57;100.00
22550;BME280;11441;57.164;-2.120;2022-07-29T02:02:15;101376.53;;;15.49;100.00
22550;BME280;11441;57.164;-2.120;2022-07-29T02:04:44;101379.41;;;15.56;100.00
22550;BME280;11441;57.164;-2.120;2022-07-29T02:07:34;101383.19;;;15.44;100.00
22550;BME280;11441;57.164;-2.120;2022-07-29T02:10:04;101380.94;;;15.53;100.00
22550;BME280;11441;57.164;-2.120;2022-07-29T02:12:35;101379.03;;;15.57;100.00
22550;BME280;11441;57.164;-2.120;2022-07-29T02:15:04;101374.97;;;15.51;100.00
22550;BME280;11441;57.164;-2.120;2022-07-29T02:17:42;101368.41;;;15.63;100.00
22550;BME280;11441;57.164;-2.120;2022-07-29T02:20:11;101367.63;;;15.62;100.00
22550;BME280;11441;57.164;-2.120;2022-07-29T02:22:39;101367.16;;;15.60;100.00
22550;BME280;11441;57.164;-2.120;2022-07-29T02:25:08;101369.63;;;15.65;100.00
22550;BME280;11441;57.164;-2.120;2022-07-29T02:27:41;101360.13;;;15.67;100.00
22550;BME280;11441;57.164;-2.120;2022-07-29T02:30:09;101363.66;;;15.63;100.00
22550;BME280;11441;57.164;-2.120;2022-07-29T02:32:39;101365.63;;;15.63;100.00
22550;BME280;11441;57.164;-2.120;2022-07-29T02:35:09;101362.38;;;15.57;100.00
22550;BME280;11441;57.164;-2.120;2022-07-29T02:37:37;101377.44;;;15.56;100.00
22550;BME280;11441;57.164;-2.120;2022-07-29T02:40:09;101365.53;;;15.56;100.00
22550;BME280;11441;57.164;-2.120;2022-07-29T02:42:38;101368.78;;;15.61;100.00
22550;BME280;11441;57.164;-2.120;2022-07-29T02:45:08;101371.56;;;15.61;100.00
22550;BME280;11441;57.164;-2.120;2022-07-29T02:47:43;101358.00;;;15.56;100.00
22550;BME280;11441;57.164;-2.120;2022-07-29T02:50:21;101369.09;;;15.56;100.00
22550;BME280;11441;57.164;-2.120;2022-07-29T02:52:55;101364.28;;;15.53;100.00
22550;BME280;11441;57.164;-2.120;2022-07-29T02:55:35;101357.56;;;15.54;100.00
22550;BME280;11441;57.164;-2.120;2022-07-29T02:58:10;101361.56;;;15.57;100.00
22550;BME280;11441;57.164;-2.120;2022-07-29T03:00:40;101353.91;;;15.46;100.00
22550;BME280;11441;57.164;-2.120;2022-07-29T03:03:14;101355.16;;;15.53;100.00
22550;BME280;11441;57.164;-2.120;2022-07-29T03:05:42;101359.28;;;15.62;100.00
22550;BME280;11441;57.164;-2.120;2022-07-29T03:08:12;101353.38;;;15.64;100.00
22550;BME280;11441;57.164;-2.120;2022-07-29T03:10:42;101358.09;;;15.63;100.00
22550;BME280;11441;57.164;-2.120;2022-07-29T03:13:10;101357.03;;;15.72;100.00
22550;BME280;11441;57.164;-2.120;2022-07-29T03:15:39;101355.00;;;15.69;100.00
22550;BME280;11441;57.164;-2.120;2022-07-29T03:18:06;101355.31;;;15.63;100.00
22550;BME280;11441;57.164;-2.120;2022-07-29T03:20:34;101360.94;;;15.67;100.00
22550;BME280;11441;57.164;-2.120;2022-07-29T03:23:02;101355.75;;;15.65;100.00
22550;BME280;11441;57.164;-2.120;2022-07-29T03:25:29;101360.09;;;15.63;100.00
22550;BME280;11441;57.164;-2.120;2022-07-29T03:28:14;101357.91;;;15.76;100.00
22550;BME280;11441;57.164;-2.120;2022-07-29T03:30:41;101363.38;;;15.72;100.00
22550;BME280;11441;57.164;-2.120;2022-07-29T03:33:10;101359.78;;;15.68;100.00
22550;BME280;11441;57.164;-2.120;2022-07-29T03:35:39;101356.88;;;15.61;100.00
22550;BME280;11441;57.164;-2.120;2022-07-29T03:38:06;101360.56;;;15.69;100.00
22550;BME280;11441;57.164;-2.120;2022-07-29T03:40:44;101357.69;;;15.61;100.00
22550;BME280;11441;57.164;-2.120;2022-07-29T03:43:15;101355.66;;;15.58;100.00
22550;BME280;11441;57.164;-2.120;2022-07-29T03:45:46;101357.56;;;15.54;100.00
22550;BME280;11441;57.164;-2.120;2022-07-29T03:48:16;101356.34;;;15.52;100.00
22550;BME280;11441;57.164;-2.120;2022-07-29T03:50:44;101346.06;;;15.52;100.00
22550;BME280;11441;57.164;-2.120;2022-07-29T03:53:12;101351.28;;;15.57;100.00
22550;BME280;11441;57.164;-2.120;2022-07-29T03:55:47;101348.00;;;15.52;100.00
22550;BME280;11441;57.164;-2.120;2022-07-29T03:58:15;101349.63;;;15.53;100.00
22550;BME280;11441;57.164;-2.120;2022-07-29T04:00:43;101350.34;;;15.50;100.00
22550;BME280;11441;57.164;-2.120;2022-07-29T04:03:29;101359.25;;;15.36;100.00
22550;BME280;11441;57.164;-2.120;2022-07-29T04:06:05;101349.88;;;15.44;100.00
22550;BME280;11441;57.164;-2.120;2022-07-29T04:08:33;101359.31;;;15.39;100.00
22550;BME280;11441;57.164;-2.120;2022-07-29T04:11:01;101357.69;;;15.35;100.00
22550;BME280;11441;57.164;-2.120;2022-07-29T04:13:29;101356.78;;;15.31;100.00
22550;BME280;11441;57.164;-2.120;2022-07-29T04:15:56;101346.81;;;15.26;100.00
22550;BME280;11441;57.164;-2.120;2022-07-29T04:18:23;101345.91;;;15.18;100.00
22550;BME280;11441;57.164;-2.120;2022-07-29T04:20:50;101344.38;;;15.21;100.00
22550;BME280;11441;57.164;-2.120;2022-07-29T04:23:17;101345.22;;;15.25;100.00
22550;BME280;11441;57.164;-2.120;2022-07-29T04:25:44;101344.72;;;15.19;100.00
22550;BME280;11441;57.164;-2.120;2022-07-29T04:28:11;101342.38;;;15.21;100.00
22550;BME280;11441;57.164;-2.120;2022-07-29T04:30:38;101338.44;;;15.22;100.00
22550;BME280;11441;57.164;-2.120;2022-07-29T04:33:06;101344.84;;;15.26;100.00
22550;BME280;11441;57.164;-2.120;2022-07-29T04:35:36;101348.72;;;15.22;100.00
22550;BME280;11441;57.164;-2.120;2022-07-29T04:38:15;101330.88;;;15.19;100.00
22550;BME280;11441;57.164;-2.120;2022-07-29T04:40:59;101346.72;;;15.19;100.00
22550;BME280;11441;57.164;-2.120;2022-07-29T04:43:27;101333.75;;;15.26;100.00
22550;BME280;11441;57.164;-2.120;2022-07-29T04:46:03;101335.69;;;15.22;100.00
22550;BME280;11441;57.164;-2.120;2022-07-29T04:48:30;101338.34;;;15.15;100.00
22550;BME280;11441;57.164;-2.120;2022-07-29T04:50:57;101336.47;;;15.23;100.00
22550;BME280;11441;57.164;-2.120;2022-07-29T04:53:25;101341.13;;;15.15;100.00
22550;BME280;11441;57.164;-2.120;2022-07-29T04:55:52;101340.97;;;15.08;100.00
22550;BME280;11441;57.164;-2.120;2022-07-29T04:58:18;101341.47;;;15.14;100.00
22550;BME280;11441;57.164;-2.120;2022-07-29T05:00:45;101343.69;;;15.04;100.00
22550;BME280;11441;57.164;-2.120;2022-07-29T05:03:12;101344.25;;;15.14;100.00
22550;BME280;11441;57.164;-2.120;2022-07-29T05:05:39;101349.50;;;15.19;100.00
22550;BME280;11441;57.164;-2.120;2022-07-29T05:08:07;101348.97;;;15.13;100.00
22550;BME280;11441;57.164;-2.120;2022-07-29T05:10:34;101349.84;;;15.17;100.00
22550;BME280;11441;57.164;-2.120;2022-07-29T05:13:21;101344.94;;;15.07;100.00
22550;BME280;11441;57.164;-2.120;2022-07-29T05:16:08;101344.25;;;15.14;100.00
22550;BME280;11441;57.164;-2.120;2022-07-29T05:18:35;101338.41;;;15.19;100.00
22550;BME280;11441;57.164;-2.120;2022-07-29T05:21:20;101344.63;;;15.12;100.00
22550;BME280;11441;57.164;-2.120;2022-07-29T05:23:47;101351.28;;;15.07;100.00
22550;BME280;11441;57.164;-2.120;2022-07-29T05:26:14;101349.59;;;15.03;100.00
22550;BME280;11441;57.164;-2.120;2022-07-29T05:28:41;101355.41;;;15.17;100.00
22550;BME280;11441;57.164;-2.120;2022-07-29T05:31:26;101356.03;;;15.07;100.00
22550;BME280;11441;57.164;-2.120;2022-07-29T05:33:53;101360.84;;;15.10;100.00
22550;BME280;11441;57.164;-2.120;2022-07-29T05:36:20;101355.41;;;15.17;100.00
22550;BME280;11441;57.164;-2.120;2022-07-29T05:38:47;101352.94;;;15.12;100.00
22550;BME280;11441;57.164;-2.120;2022-07-29T05:41:14;101359.09;;;15.25;100.00
22550;BME280;11441;57.164;-2.120;2022-07-29T05:43:41;101358.59;;;15.19;100.00
22550;BME280;11441;57.164;-2.120;2022-07-29T05:46:27;101363.16;;;15.08;100.00
22550;BME280;11441;57.164;-2.120;2022-07-29T05:48:54;101370.19;;;15.25;100.00
22550;BME280;11441;57.164;-2.120;2022-07-29T05:51:21;101370.13;;;15.21;100.00
22550;BME280;11441;57.164;-2.120;2022-07-29T05:53:48;101358.97;;;15.18;100.00
22550;BME280;11441;57.164;-2.120;2022-07-29T05:56:15;101360.19;;;15.20;100.00
22550;BME280;11441;57.164;-2.120;2022-07-29T05:59:01;101351.63;;;15.29;100.00
22550;BME280;11441;57.164;-2.120;2022-07-29T06:01:28;101355.41;;;15.17;100.00
22550;BME280;11441;57.164;-2.120;2022-07-29T06:03:55;101353.97;;;15.27;100.00
22550;BME280;11441;57.164;-2.120;2022-07-29T06:06:22;101354.63;;;15.20;100.00
22550;BME280;11441;57.164;-2.120;2022-07-29T06:08:49;101352.44;;;15.30;100.00
22550;BME280;11441;57.164;-2.120;2022-07-29T06:11:16;101341.88;;;15.39;100.00
22550;BME280;11441;57.164;-2.120;2022-07-29T06:13:43;101344.31;;;15.44;100.00
22550;BME280;11441;57.164;-2.120;2022-07-29T06:16:09;101360.88;;;15.37;100.00
22550;BME280;11441;57.164;-2.120;2022-07-29T06:18:41;101364.81;;;15.36;100.00
22550;BME280;11441;57.164;-2.120;2022-07-29T06:21:08;101361.41;;;15.46;100.00
22550;BME280;11441;57.164;-2.120;2022-07-29T06:23:39;101362.97;;;15.43;100.00
22550;BME280;11441;57.164;-2.120;2022-07-29T06:26:06;101365.78;;;15.47;100.00
22550;BME280;11441;57.164;-2.120;2022-07-29T06:28:33;101359.81;;;15.45;100.00
22550;BME280;11441;57.164;-2.120;2022-07-29T06:31:00;101368.63;;;15.51;100.00
22550;BME280;11441;57.164;-2.120;2022-07-29T06:33:46;101367.69;;;15.43;100.00
22550;BME280;11441;57.164;-2.120;2022-07-29T06:36:13;101366.97;;;15.46;100.00
22550;BME280;11441;57.164;-2.120;2022-07-29T06:38:40;101357.56;;;15.54;100.00
22550;BME280;11441;57.164;-2.120;2022-07-29T06:41:17;101357.63;;;15.58;100.00
22550;BME280;11441;57.164;-2.120;2022-07-29T06:43:45;101353.28;;;15.60;100.00
22550;BME280;11441;57.164;-2.120;2022-07-29T06:46:21;101355.28;;;15.60;100.00
22550;BME280;11441;57.164;-2.120;2022-07-29T06:48:49;101347.41;;;15.65;100.00
22550;BME280;11441;57.164;-2.120;2022-07-29T06:51:16;101352.81;;;15.55;100.00
22550;BME280;11441;57.164;-2.120;2022-07-29T06:53:51;101355.44;;;15.71;100.00
22550;BME280;11441;57.164;-2.120;2022-07-29T06:56:32;101357.97;;;15.79;100.00
22550;BME280;11441;57.164;-2.120;2022-07-29T06:59:10;101356.63;;;15.70;100.00
22550;BME280;11441;57.164;-2.120;2022-07-29T07:01:56;101352.03;;;15.81;100.00
22550;BME280;11441;57.164;-2.120;2022-07-29T07:04:23;101359.28;;;15.62;100.00
22550;BME280;11441;57.164;-2.120;2022-07-29T07:07:08;101349.41;;;15.65;100.00
22550;BME280;11441;57.164;-2.120;2022-07-29T07:09:35;101355.00;;;15.69;100.00
22550;BME280;11441;57.164;-2.120;2022-07-29T07:12:06;101360.13;;;15.67;100.00
22550;BME280;11441;57.164;-2.120;2022-07-29T07:14:34;101367.72;;;15.70;100.00
22550;BME280;11441;57.164;-2.120;2022-07-29T07:17:01;101364.13;;;15.69;100.00
22550;BME280;11441;57.164;-2.120;2022-07-29T07:19:30;101372.03;;;15.67;100.00
22550;BME280;11441;57.164;-2.120;2022-07-29T07:21:57;101357.16;;;15.79;100.00
22550;BME280;11441;57.164;-2.120;2022-07-29T07:24:26;101363.16;;;15.81;100.00
22550;BME280;11441;57.164;-2.120;2022-07-29T07:27:31;101357.13;;;15.75;100.00
22550;BME280;11441;57.164;-2.120;2022-07-29T07:29:58;101361.97;;;15.82;100.00
22550;BME280;11441;57.164;-2.120;2022-07-29T07:32:25;101362.81;;;15.86;100.00
22550;BME280;11441;57.164;-2.120;2022-07-29T07:34:52;101355.34;;;15.90;100.00
22550;BME280;11441;57.164;-2.120;2022-07-29T07:37:19;101354.81;;;16.08;100.00
22550;BME280;11441;57.164;-2.120;2022-07-29T07:39:47;101348.47;;;16.11;100.00
22550;BME280;11441;57.164;-2.120;2022-07-29T07:42:13;101354.13;;;15.88;100.00
22550;BME280;11441;57.164;-2.120;2022-07-29T07:44:40;101363.84;;;16.01;100.00
22550;BME280;11441;57.164;-2.120;2022-07-29T07:47:28;101364.47;;;16.21;100.00
22550;BME280;11441;57.164;-2.120;2022-07-29T07:49:55;101368.88;;;16.22;100.00
22550;BME280;11441;57.164;-2.120;2022-07-29T07:52:22;101364.22;;;16.33;100.00
22550;BME280;11441;57.164;-2.120;2022-07-29T07:54:49;101365.53;;;16.43;100.00
22550;BME280;11441;57.164;-2.120;2022-07-29T07:57:17;101359.69;;;16.52;100.00
22550;BME280;11441;57.164;-2.120;2022-07-29T07:59:44;101356.66;;;16.64;100.00
22550;BME280;11441;57.164;-2.120;2022-07-29T08:02:11;101355.75;;;16.53;100.00
22550;BME280;11441;57.164;-2.120;2022-07-29T08:04:38;101373.38;;;16.68;100.00
22550;BME280;11441;57.164;-2.120;2022-07-29T08:07:07;101369.13;;;16.77;100.00
22550;BME280;11441;57.164;-2.120;2022-07-29T08:09:35;101368.63;;;16.72;100.00
22550;BME280;11441;57.164;-2.120;2022-07-29T08:12:03;101361.97;;;16.80;100.00
22550;BME280;11441;57.164;-2.120;2022-07-29T08:14:30;101357.34;;;16.91;100.00
22550;BME280;11441;57.164;-2.120;2022-07-29T08:16:57;101357.44;;;16.99;100.00
22550;BME280;11441;57.164;-2.120;2022-07-29T08:19:45;101355.53;;;17.10;100.00
22550;BME280;11441;57.164;-2.120;2022-07-29T08:22:14;101345.63;;;17.12;100.00
22550;BME280;11441;57.164;-2.120;2022-07-29T08:24:41;101352.16;;;17.34;100.00
22550;BME280;11441;57.164;-2.120;2022-07-29T08:27:22;101343.53;;;17.50;100.00
22550;BME280;11441;57.164;-2.120;2022-07-29T08:30:09;101340.72;;;17.47;100.00
22550;BME280;11441;57.164;-2.120;2022-07-29T08:32:37;101330.41;;;17.51;100.00
22550;BME280;11441;57.164;-2.120;2022-07-29T08:35:22;101330.50;;;17.69;100.00
22550;BME280;11441;57.164;-2.120;2022-07-29T08:37:50;101343.03;;;17.97;100.00
22550;BME280;11441;57.164;-2.120;2022-07-29T08:40:19;101341.81;;;17.90;100.00
22550;BME280;11441;57.164;-2.120;2022-07-29T08:42:59;101343.41;;;17.92;100.00
22550;BME280;11441;57.164;-2.120;2022-07-29T08:45:42;101339.47;;;18.00;100.00
22550;BME280;11441;57.164;-2.120;2022-07-29T08:48:18;101337.47;;;18.00;100.00
22550;BME280;11441;57.164;-2.120;2022-07-29T08:50:47;101349.41;;;17.97;100.00
22550;BME280;11441;57.164;-2.120;2022-07-29T08:53:16;101345.81;;;17.93;100.00
22550;BME280;11441;57.164;-2.120;2022-07-29T08:55:48;101343.50;;;18.09;100.00
22550;BME280;11441;57.164;-2.120;2022-07-29T08:58:17;101339.34;;;17.78;100.00
22550;BME280;11441;57.164;-2.120;2022-07-29T09:00:53;101340.56;;;17.84;100.00
22550;BME280;11441;57.164;-2.120;2022-07-29T09:03:25;101338.56;;;17.85;100.00
22550;BME280;11441;57.164;-2.120;2022-07-29T09:05:53;101326.59;;;17.77;100.00
22550;BME280;11441;57.164;-2.120;2022-07-29T09:08:21;101337.03;;;17.87;100.00
22550;BME280;11441;57.164;-2.120;2022-07-29T09:11:06;101329.13;;;18.00;100.00
22550;BME280;11441;57.164;-2.120;2022-07-29T09:13:34;101322.69;;;17.89;100.00
22550;BME280;11441;57.164;-2.120;2022-07-29T09:16:02;101324.94;;;17.69;100.00
22550;BME280;11441;57.164;-2.120;2022-07-29T09:18:37;101330.53;;;17.72;100.00
22550;BME280;11441;57.164;-2.120;2022-07-29T09:21:06;101325.72;;;17.66;100.00
22550;BME280;11441;57.164;-2.120;2022-07-29T17:08:44;101162.72;;;19.16;100.00
22550;BME280;11441;57.164;-2.120;2022-07-29T17:11:11;101166.34;;;19.06;100.00
22550;BME280;11441;57.164;-2.120;2022-07-29T17:13:57;101158.72;;;19.10;100.00
22550;BME280;11441;57.164;-2.120;2022-07-29T17:16:25;101148.34;;;19.17;100.00
22550;BME280;11441;57.164;-2.120;2022-07-29T17:19:11;101149.59;;;19.02;100.00
22550;BME280;11441;57.164;-2.120;2022-07-29T17:21:37;101144.41;;;18.79;100.00
22550;BME280;11441;57.164;-2.120;2022-07-29T17:24:14;101146.41;;;18.93;100.00
22550;BME280;11441;57.164;-2.120;2022-07-29T17:26:41;101147.59;;;19.02;100.00
22550;BME280;11441;57.164;-2.120;2022-07-29T17:29:10;101143.22;;;18.73;100.00
22550;BME280;11441;57.164;-2.120;2022-07-29T17:31:37;101138.88;;;18.46;100.00
22550;BME280;11441;57.164;-2.120;2022-07-29T17:34:04;101136.09;;;18.43;100.00
22550;BME280;11441;57.164;-2.120;2022-07-29T17:36:32;101138.47;;;18.55;100.00
22550;BME280;11441;57.164;-2.120;2022-07-29T17:39:05;101134.47;;;18.63;100.00
22550;BME280;11441;57.164;-2.120;2022-07-29T17:41:33;101146.03;;;18.55;100.00
22550;BME280;11441;57.164;-2.120;2022-07-29T17:44:00;101140.47;;;18.26;100.00
22550;BME280;11441;57.164;-2.120;2022-07-29T17:46:26;101128.09;;;18.52;100.00
22550;BME280;11441;57.164;-2.120;2022-07-29T17:48:55;101131.25;;;18.69;100.00
22550;BME280;11441;57.164;-2.120;2022-07-29T17:51:24;101136.84;;;18.76;100.00
22550;BME280;11441;57.164;-2.120;2022-07-29T17:53:52;101129.69;;;18.82;100.00
22550;BME280;11441;57.164;-2.120;2022-07-29T17:56:19;101116.50;;;18.97;100.00
22550;BME280;11441;57.164;-2.120;2022-07-29T17:58:46;101096.56;;;19.02;100.00
22550;BME280;11441;57.164;-2.120;2022-07-29T18:01:13;101090.22;;;18.91;100.00
22550;BME280;11441;57.164;-2.120;2022-07-29T18:03:41;101098.19;;;18.92;100.00
22550;BME280;11441;57.164;-2.120;2022-07-29T18:06:27;101107.38;;;18.64;100.00
22550;BME280;11441;57.164;-2.120;2022-07-29T18:08:55;101101.00;;;18.53;100.00
22550;BME280;11441;57.164;-2.120;2022-07-29T18:11:22;101113.38;;;18.16;100.00
22550;BME280;11441;57.164;-2.120;2022-07-29T18:13:49;101100.22;;;18.41;100.00
22550;BME280;11441;57.164;-2.120;2022-07-29T18:16:17;101099.44;;;18.41;100.00
22550;BME280;11441;57.164;-2.120;2022-07-29T18:18:45;101097.84;;;18.33;100.00
22550;BME280;11441;57.164;-2.120;2022-07-29T18:21:13;101091.06;;;18.34;100.00
22550;BME280;11441;57.164;-2.120;2022-07-29T18:23:58;101092.66;;;18.27;100.00
22550;BME280;11441;57.164;-2.120;2022-07-29T18:26:24;101091.06;;;18.23;100.00
22550;BME280;11441;57.164;-2.120;2022-07-29T18:32:01;101088.28;;;18.19;100.00
22550;BME280;11441;57.164;-2.120;2022-07-29T18:34:28;101087.47;;;17.97;100.00
22550;BME280;11441;57.164;-2.120;2022-07-29T18:36:55;101092.25;;;18.07;100.00
22550;BME280;11441;57.164;-2.120;2022-07-29T18:39:22;101092.63;;;17.92;100.00
22550;BME280;11441;57.164;-2.120;2022-07-29T18:41:49;101094.22;;;17.85;100.00
22550;BME280;11441;57.164;-2.120;2022-07-29T18:44:20;101090.56;;;17.60;100.00
22550;BME280;11441;57.164;-2.120;2022-07-29T18:47:06;101099.72;;;17.71;100.00
22550;BME280;11441;57.164;-2.120;2022-07-29T18:49:37;101083.41;;;17.66;100.00
22550;BME280;11441;57.164;-2.120;2022-07-29T18:55:08;101084.13;;;17.34;100.00
22550;BME280;11441;57.164;-2.120;2022-07-29T18:57:35;101088.94;;;17.48;100.00
22550;BME280;11441;57.164;-2.120;2022-07-29T19:00:23;101094.44;;;17.30;100.00
22550;BME280;11441;57.164;-2.120;2022-07-29T19:02:50;101093.91;;;17.03;100.00
22550;BME280;11441;57.164;-2.120;2022-07-29T19:05:36;101092.50;;;17.41;100.00
22550;BME280;11441;57.164;-2.120;2022-07-29T19:08:03;101089.66;;;17.23;100.00
22550;BME280;11441;57.164;-2.120;2022-07-29T19:10:30;101088.16;;;17.47;100.00
22550;BME280;11441;57.164;-2.120;2022-07-29T19:12:57;101084.97;;;17.52;100.00
22550;BME280;11441;57.164;-2.120;2022-07-29T19:15:42;101090.88;;;17.33;100.00
22550;BME280;11441;57.164;-2.120;2022-07-29T19:18:09;101085.66;;;17.21;100.00
22550;BME280;11441;57.164;-2.120;2022-07-29T19:20:39;101080.56;;;17.37;100.00
22550;BME280;11441;57.164;-2.120;2022-07-29T19:23:06;101074.56;;;17.31;100.00
22550;BME280;11441;57.164;-2.120;2022-07-29T19:25:34;101090.03;;;17.18;100.00
22550;BME280;11441;57.164;-2.120;2022-07-29T19:28:19;101085.25;;;17.22;100.00
22550;BME280;11441;57.164;-2.120;2022-07-29T19:30:46;101090.84;;;17.26;100.00
22550;BME280;11441;57.164;-2.120;2022-07-29T19:33:13;101085.59;;;17.10;100.00
22550;BME280;11441;57.164;-2.120;2022-07-29T19:35:43;101090.47;;;17.31;100.00
22550;BME280;11441;57.164;-2.120;2022-07-29T19:38:13;101087.69;;;17.34;100.00
22550;BME280;11441;57.164;-2.120;2022-07-29T19:40:40;101084.06;;;17.16;100.00
22550;BME280;11441;57.164;-2.120;2022-07-29T19:43:07;101084.06;;;17.20;100.00
22550;BME280;11441;57.164;-2.120;2022-07-29T19:45:54;101080.53;;;17.30;100.00
22550;BME280;11441;57.164;-2.120;2022-07-29T19:48:21;101082.84;;;17.13;100.00
22550;BME280;11441;57.164;-2.120;2022-07-29T19:50:47;101073.28;;;17.07;100.00
22550;BME280;11441;57.164;-2.120;2022-07-29T19:53:14;101078.91;;;17.25;100.00
22550;BME280;11441;57.164;-2.120;2022-07-29T19:55:41;101079.59;;;17.01;100.00
22550;BME280;11441;57.164;-2.120;2022-07-29T19:58:08;101072.88;;;17.05;100.00
22550;BME280;11441;57.164;-2.120;2022-07-29T20:00:36;101066.88;;;17.00;100.00
22550;BME280;11441;57.164;-2.120;2022-07-29T20:03:05;101078.44;;;17.02;100.00
22550;BME280;11441;57.164;-2.120;2022-07-29T20:05:32;101055.69;;;16.85;100.00
22550;BME280;11441;57.164;-2.120;2022-07-29T20:07:59;101066.84;;;16.92;100.00
22550;BME280;11441;57.164;-2.120;2022-07-29T20:10:27;101061.53;;;16.69;100.00
22550;BME280;11441;57.164;-2.120;2022-07-29T20:12:53;101064.69;;;16.68;100.00
22550;BME280;11441;57.164;-2.120;2022-07-29T20:15:21;101060.47;;;16.85;100.00
22550;BME280;11441;57.164;-2.120;2022-07-29T20:17:48;101057.63;;;16.77;100.00
22550;BME280;11441;57.164;-2.120;2022-07-29T20:20:22;101055.59;;;16.74;100.00
22550;BME280;11441;57.164;-2.120;2022-07-29T20:22:49;101045.69;;;16.81;100.00
22550;BME280;11441;57.164;-2.120;2022-07-29T20:25:16;101039.00;;;16.89;100.00
22550;BME280;11441;57.164;-2.120;2022-07-29T20:27:43;101041.78;;;16.85;100.00
22550;BME280;11441;57.164;-2.120;2022-07-29T20:30:11;101042.13;;;16.80;100.00
22550;BME280;11441;57.164;-2.120;2022-07-29T20:32:43;101038.56;;;16.83;100.00
22550;BME280;11441;57.164;-2.120;2022-07-29T20:35:11;101035.31;;;16.70;100.00
22550;BME280;11441;57.164;-2.120;2022-07-29T20:37:39;101034.00;;;16.50;100.00
22550;BME280;11441;57.164;-2.120;2022-07-29T20:40:23;101036.78;;;16.50;100.00
22550;BME280;11441;57.164;-2.120;2022-07-29T20:42:52;101037.31;;;16.73;100.00
22550;BME280;11441;57.164;-2.120;2022-07-29T20:45:20;101044.47;;;16.74;100.00
22550;BME280;11441;57.164;-2.120;2022-07-29T20:48:06;101045.13;;;16.50;100.00
22550;BME280;11441;57.164;-2.120;2022-07-29T20:50:34;101043.66;;;16.67;100.00
22550;BME280;11441;57.164;-2.120;2022-07-29T20:53:00;101034.81;;;16.54;100.00
22550;BME280;11441;57.164;-2.120;2022-07-29T20:55:27;101044.41;;;16.60;100.00
22550;BME280;11441;57.164;-2.120;2022-07-29T20:57:54;101032.53;;;16.67;100.00